Detalii statie RECOND [00001D02]

Toti senzorii

Date Temperatura solului [C]Precipitatii [mm]Voltaj baterie [mV]Leaf Wetness [Min]HC Air temperature [C]HC Relative humidity [%]Punctul de roua [C]
medieminmaxsumaultimatimpmedieminmaxmediemediemin
2017-12-10 22:00:00 0 6376 2.44 2.31 2.6 0 0 0
2017-12-10 23:00:00 0 6366 2.15 2.03 2.32 0 0 0
2017-12-11 00:00:00 0 6366 1.98 1.96 2 0 0 0
2017-12-11 01:00:00 0 6366 1.91 1.81 1.99 0 0 0
2017-12-11 02:00:00 0 6366 1.73 1.68 1.77 0 0 0
2017-12-11 03:00:00 0 6366 1.61 1.56 1.69 0 0 0
2017-12-11 04:00:00 0 6366 1.47 1.35 1.55 0 0 0
2017-12-11 05:00:00 0 6366 1.26 1.2 1.35 0 0 0
2017-12-11 06:00:00 0 6366 1.12 1.03 1.2 0 0 0
2017-12-11 07:00:00 0 6366 0.99 0.97 1.03 0 0 0
2017-12-11 08:00:00 0 6366 0.99 0.95 1.03 0 0 0
2017-12-11 09:00:00 0 6366 0.96 0.92 1 0 0 0
2017-12-11 10:00:00 0 6366 1.24 0.96 1.84 0 0 0
2017-12-11 11:00:00 0 6366 3.04 2.14 3.52 0 0 0
2017-12-11 12:00:00 0 6356 4.48 3.7 5.92 0 0 0
2017-12-11 13:00:00 0 6366 5.64 5.03 6.17 0 0 0
2017-12-11 14:00:00 0 6366 4.69 4.39 4.99 0 0 0
2017-12-11 15:00:00 0 6366 4.19 4.06 4.35 0 0 0
2017-12-11 16:00:00 0 6366 4.05 4 4.11 0 0 0
2017-12-11 17:00:00 0 6366 3.92 3.73 4.09 0 0 0
2017-12-11 18:00:00 0 6366 3.51 3.34 3.69 0 0 0
2017-12-11 19:00:00 0 6366 3.16 3.04 3.31 0 0 0
2017-12-11 20:00:00 0 6366 2.9 2.78 3.03 0 0 0
2017-12-11 21:00:00 0 6366 2.66 2.58 2.77 0 0 0
2017-12-11 22:00:00 0 6356 2.49 2.42 2.57 0 0 0
2017-12-11 23:00:00 0 6356 2.31 2.23 2.4 0 0 0
2017-12-12 00:00:00 0 6356 2.1 1.97 2.23 0 0 0
2017-12-12 01:00:00 0 6356 1.9 1.86 1.97 0 0 0
2017-12-12 02:00:00 0 6356 1.76 1.7 1.84 0 0 0
2017-12-12 03:00:00 0 6356 1.6 1.56 1.68 0 0 0
2017-12-12 04:00:00 0 6356 1.46 1.43 1.54 0 0 0
2017-12-12 05:00:00 0 6356 1.39 1.31 1.47 0 0 0
2017-12-12 06:00:00 0 6356 1.3 1.27 1.32 0 0 0
2017-12-12 07:00:00 0 6356 1.24 1.2 1.29 0 0 0
2017-12-12 08:00:00 0 6356 1.13 1.07 1.18 0 0 0
2017-12-12 09:00:00 0 6356 1.44 1.07 1.95 0 0 0
2017-12-12 10:00:00 0 6346 2.2 2.05 2.64 0 0 0
2017-12-12 11:00:00 0 6346 4.23 3.05 4.83 0 0 0
2017-12-12 12:00:00 0 6346 5.68 5.07 6.34 0 0 0
2017-12-12 13:00:00 0 6346 6.59 6.11 7.21 0 0 0
2017-12-12 14:00:00 0 6356 7.54 7.33 7.76 0 0 0
2017-12-12 15:00:00 0 6356 7.33 7.17 7.75 0 0 0
2017-12-12 16:00:00 0 6356 8.03 7.82 8.12 0 0 0
2017-12-12 17:00:00 0 6356 7.34 6.71 7.93 0 0 0
2017-12-12 18:00:00 0 6356 6.07 5.63 6.62 0 0 0
2017-12-12 19:00:00 0 6356 5.26 4.99 5.56 0 0 0
2017-12-12 20:00:00 0 6356 4.72 4.53 4.96 0 0 0
2017-12-12 21:00:00 0 6356 4.33 4.2 4.5 0 0 0